sensor_id;sensor_type;location;lat;lon;timestamp;P1;durP1;ratioP1;P2;durP2;ratioP2
62673;SDS011;62269;47.594;17.638;2023-03-01T00:00:03;22.73;;;16.90;;
62673;SDS011;62269;47.594;17.638;2023-03-01T00:00:51;27.40;;;19.42;;
62673;SDS011;62269;47.594;17.638;2023-03-01T00:01:38;22.95;;;16.75;;
62673;SDS011;62269;47.594;17.638;2023-03-01T00:02:25;26.90;;;17.67;;
62673;SDS011;62269;47.594;17.638;2023-03-01T00:03:12;25.50;;;18.30;;
62673;SDS011;62269;47.594;17.638;2023-03-01T00:03:59;22.90;;;17.65;;
62673;SDS011;62269;47.594;17.638;2023-03-01T00:04:46;25.27;;;17.65;;
62673;SDS011;62269;47.594;17.638;2023-03-01T00:05:33;26.40;;;18.27;;
62673;SDS011;62269;47.594;17.638;2023-03-01T00:06:20;26.55;;;18.05;;
62673;SDS011;62269;47.594;17.638;2023-03-01T00:07:08;23.65;;;17.92;;
62673;SDS011;62269;47.594;17.638;2023-03-01T00:07:55;25.65;;;19.10;;
62673;SDS011;62269;47.594;17.638;2023-03-01T00:08:42;27.73;;;18.35;;
62673;SDS011;62269;47.594;17.638;2023-03-01T00:09:29;25.88;;;18.73;;
62673;SDS011;62269;47.594;17.638;2023-03-01T00:10:16;23.27;;;17.55;;
62673;SDS011;62269;47.594;17.638;2023-03-01T00:11:07;23.75;;;17.37;;
62673;SDS011;62269;47.594;17.638;2023-03-01T00:11:56;22.95;;;18.52;;
62673;SDS011;62269;47.594;17.638;2023-03-01T00:12:43;23.50;;;17.17;;
62673;SDS011;62269;47.594;17.638;2023-03-01T00:13:30;23.85;;;16.42;;
62673;SDS011;62269;47.594;17.638;2023-03-01T00:14:17;22.75;;;17.00;;
62673;SDS011;62269;47.594;17.638;2023-03-01T00:15:04;24.83;;;17.30;;
62673;SDS011;62269;47.594;17.638;2023-03-01T00:15:51;22.45;;;17.48;;
62673;SDS011;62269;47.594;17.638;2023-03-01T00:16:39;26.60;;;17.50;;
62673;SDS011;62269;47.594;17.638;2023-03-01T00:17:27;23.00;;;17.73;;
62673;SDS011;62269;47.594;17.638;2023-03-01T00:18:14;23.12;;;17.10;;
62673;SDS011;62269;47.594;17.638;2023-03-01T00:19:01;24.08;;;17.00;;
62673;SDS011;62269;47.594;17.638;2023-03-01T00:19:48;25.60;;;17.95;;
62673;SDS011;62269;47.594;17.638;2023-03-01T00:20:35;25.30;;;17.12;;
62673;SDS011;62269;47.594;17.638;2023-03-01T00:21:22;24.55;;;17.70;;
62673;SDS011;62269;47.594;17.638;2023-03-01T00:22:09;23.17;;;16.92;;
62673;SDS011;62269;47.594;17.638;2023-03-01T00:22:56;25.00;;;16.87;;
62673;SDS011;62269;47.594;17.638;2023-03-01T00:23:43;21.65;;;16.80;;
62673;SDS011;62269;47.594;17.638;2023-03-01T00:24:30;22.08;;;16.50;;
62673;SDS011;62269;47.594;17.638;2023-03-01T00:25:17;22.77;;;16.80;;
62673;SDS011;62269;47.594;17.638;2023-03-01T00:26:12;23.60;;;17.23;;
62673;SDS011;62269;47.594;17.638;2023-03-01T00:26:59;20.98;;;16.62;;
62673;SDS011;62269;47.594;17.638;2023-03-01T00:27:46;25.10;;;18.10;;
62673;SDS011;62269;47.594;17.638;2023-03-01T00:28:35;25.92;;;17.73;;
62673;SDS011;62269;47.594;17.638;2023-03-01T00:29:23;24.77;;;16.83;;
62673;SDS011;62269;47.594;17.638;2023-03-01T00:30:10;22.33;;;17.33;;
62673;SDS011;62269;47.594;17.638;2023-03-01T00:31:02;22.58;;;16.20;;
62673;SDS011;62269;47.594;17.638;2023-03-01T00:31:53;25.25;;;17.48;;
62673;SDS011;62269;47.594;17.638;2023-03-01T00:32:40;25.12;;;17.15;;
62673;SDS011;62269;47.594;17.638;2023-03-01T00:33:27;19.60;;;16.58;;
62673;SDS011;62269;47.594;17.638;2023-03-01T00:34:13;23.62;;;17.23;;
62673;SDS011;62269;47.594;17.638;2023-03-01T00:35:00;24.80;;;16.77;;
62673;SDS011;62269;47.594;17.638;2023-03-01T00:35:47;21.40;;;15.82;;
62673;SDS011;62269;47.594;17.638;2023-03-01T00:36:35;24.58;;;17.27;;
62673;SDS011;62269;47.594;17.638;2023-03-01T00:37:23;24.83;;;17.33;;
62673;SDS011;62269;47.594;17.638;2023-03-01T00:38:10;30.62;;;17.75;;
62673;SDS011;62269;47.594;17.638;2023-03-01T00:38:57;24.60;;;16.80;;
62673;SDS011;62269;47.594;17.638;2023-03-01T00:39:44;24.63;;;17.23;;
62673;SDS011;62269;47.594;17.638;2023-03-01T00:40:32;23.45;;;16.00;;
62673;SDS011;62269;47.594;17.638;2023-03-01T00:41:20;23.12;;;17.42;;
62673;SDS011;62269;47.594;17.638;2023-03-01T00:42:09;23.77;;;17.37;;
62673;SDS011;62269;47.594;17.638;2023-03-01T00:42:55;24.05;;;17.75;;
62673;SDS011;62269;47.594;17.638;2023-03-01T00:43:43;21.48;;;15.68;;
62673;SDS011;62269;47.594;17.638;2023-03-01T00:44:30;25.80;;;17.35;;
62673;SDS011;62269;47.594;17.638;2023-03-01T00:45:17;23.05;;;17.37;;
62673;SDS011;62269;47.594;17.638;2023-03-01T00:46:05;23.38;;;16.85;;
62673;SDS011;62269;47.594;17.638;2023-03-01T00:46:54;25.95;;;16.60;;
62673;SDS011;62269;47.594;17.638;2023-03-01T00:47:41;23.55;;;17.08;;
62673;SDS011;62269;47.594;17.638;2023-03-01T00:48:28;22.95;;;17.10;;
62673;SDS011;62269;47.594;17.638;2023-03-01T00:49:15;22.02;;;16.37;;
62673;SDS011;62269;47.594;17.638;2023-03-01T00:50:02;22.98;;;17.30;;
62673;SDS011;62269;47.594;17.638;2023-03-01T00:50:49;24.87;;;16.65;;
62673;SDS011;62269;47.594;17.638;2023-03-01T00:51:36;22.33;;;17.62;;
62673;SDS011;62269;47.594;17.638;2023-03-01T00:52:23;20.52;;;16.40;;
62673;SDS011;62269;47.594;17.638;2023-03-01T00:53:10;24.33;;;15.98;;
62673;SDS011;62269;47.594;17.638;2023-03-01T00:53:58;24.37;;;17.67;;
62673;SDS011;62269;47.594;17.638;2023-03-01T00:54:46;20.37;;;15.63;;
62673;SDS011;62269;47.594;17.638;2023-03-01T00:55:33;23.17;;;16.52;;
62673;SDS011;62269;47.594;17.638;2023-03-01T00:56:20;23.62;;;17.35;;
62673;SDS011;62269;47.594;17.638;2023-03-01T00:57:07;22.90;;;16.17;;
62673;SDS011;62269;47.594;17.638;2023-03-01T00:57:54;23.58;;;16.10;;
62673;SDS011;62269;47.594;17.638;2023-03-01T00:58:41;21.02;;;16.95;;
62673;SDS011;62269;47.594;17.638;2023-03-01T00:59:28;23.23;;;16.58;;
62673;SDS011;62269;47.594;17.638;2023-03-01T01:00:15;21.35;;;16.17;;
62673;SDS011;62269;47.594;17.638;2023-03-01T01:01:10;21.90;;;15.63;;
62673;SDS011;62269;47.594;17.638;2023-03-01T01:02:50;20.55;;;15.23;;
62673;SDS011;62269;47.594;17.638;2023-03-01T01:03:37;21.58;;;17.37;;
62673;SDS011;62269;47.594;17.638;2023-03-01T01:04:25;23.75;;;17.45;;
62673;SDS011;62269;47.594;17.638;2023-03-01T01:05:12;24.33;;;16.25;;
62673;SDS011;62269;47.594;17.638;2023-03-01T01:05:59;21.80;;;16.17;;
62673;SDS011;62269;47.594;17.638;2023-03-01T01:06:51;22.17;;;16.65;;
62673;SDS011;62269;47.594;17.638;2023-03-01T01:07:38;20.98;;;16.67;;
62673;SDS011;62269;47.594;17.638;2023-03-01T01:08:25;23.10;;;16.90;;
62673;SDS011;62269;47.594;17.638;2023-03-01T01:09:13;20.98;;;16.12;;
62673;SDS011;62269;47.594;17.638;2023-03-01T01:10:05;21.08;;;15.90;;
62673;SDS011;62269;47.594;17.638;2023-03-01T01:10:53;21.75;;;16.17;;
62673;SDS011;62269;47.594;17.638;2023-03-01T01:11:39;23.48;;;16.25;;
62673;SDS011;62269;47.594;17.638;2023-03-01T01:12:26;20.88;;;15.70;;
62673;SDS011;62269;47.594;17.638;2023-03-01T01:13:13;20.73;;;15.98;;
62673;SDS011;62269;47.594;17.638;2023-03-01T01:14:00;21.65;;;15.68;;
62673;SDS011;62269;47.594;17.638;2023-03-01T01:14:47;23.85;;;15.65;;
62673;SDS011;62269;47.594;17.638;2023-03-01T01:15:34;23.77;;;15.43;;
62673;SDS011;62269;47.594;17.638;2023-03-01T01:16:22;22.73;;;16.70;;
62673;SDS011;62269;47.594;17.638;2023-03-01T01:17:10;22.13;;;17.60;;
62673;SDS011;62269;47.594;17.638;2023-03-01T01:17:57;25.02;;;16.37;;
62673;SDS011;62269;47.594;17.638;2023-03-01T01:18:44;21.23;;;16.08;;
62673;SDS011;62269;47.594;17.638;2023-03-01T01:19:31;23.62;;;16.50;;
62673;SDS011;62269;47.594;17.638;2023-03-01T01:20:18;20.55;;;15.88;;
62673;SDS011;62269;47.594;17.638;2023-03-01T01:21:06;22.52;;;16.60;;
62673;SDS011;62269;47.594;17.638;2023-03-01T01:21:54;20.15;;;15.95;;
62673;SDS011;62269;47.594;17.638;2023-03-01T01:22:41;23.38;;;17.60;;
62673;SDS011;62269;47.594;17.638;2023-03-01T01:23:28;20.33;;;16.10;;
62673;SDS011;62269;47.594;17.638;2023-03-01T01:24:15;22.40;;;16.33;;
62673;SDS011;62269;47.594;17.638;2023-03-01T01:25:04;20.23;;;16.33;;
62673;SDS011;62269;47.594;17.638;2023-03-01T01:25:52;21.90;;;16.92;;
62673;SDS011;62269;47.594;17.638;2023-03-01T01:26:39;25.60;;;17.25;;
62673;SDS011;62269;47.594;17.638;2023-03-01T01:27:26;20.67;;;15.77;;
62673;SDS011;62269;47.594;17.638;2023-03-01T01:28:12;21.15;;;16.70;;
62673;SDS011;62269;47.594;17.638;2023-03-01T01:29:00;24.00;;;16.62;;
62673;SDS011;62269;47.594;17.638;2023-03-01T01:29:48;20.77;;;16.58;;
62673;SDS011;62269;47.594;17.638;2023-03-01T01:30:35;21.48;;;17.00;;
62673;SDS011;62269;47.594;17.638;2023-03-01T01:31:22;21.05;;;16.10;;
62673;SDS011;62269;47.594;17.638;2023-03-01T01:32:10;24.02;;;17.27;;
62673;SDS011;62269;47.594;17.638;2023-03-01T01:32:57;20.60;;;16.55;;
62673;SDS011;62269;47.594;17.638;2023-03-01T01:33:44;24.05;;;18.10;;
62673;SDS011;62269;47.594;17.638;2023-03-01T01:34:31;20.23;;;15.57;;
62673;SDS011;62269;47.594;17.638;2023-03-01T01:35:18;22.40;;;17.30;;
62673;SDS011;62269;47.594;17.638;2023-03-01T01:36:06;20.02;;;15.90;;
62673;SDS011;62269;47.594;17.638;2023-03-01T01:36:53;21.15;;;17.05;;
62673;SDS011;62269;47.594;17.638;2023-03-01T01:37:40;21.80;;;16.90;;
62673;SDS011;62269;47.594;17.638;2023-03-01T01:38:27;21.52;;;16.35;;
62673;SDS011;62269;47.594;17.638;2023-03-01T01:39:14;22.92;;;17.40;;
62673;SDS011;62269;47.594;17.638;2023-03-01T01:40:01;21.00;;;15.90;;
62673;SDS011;62269;47.594;17.638;2023-03-01T01:40:51;20.50;;;15.27;;
62673;SDS011;62269;47.594;17.638;2023-03-01T01:41:39;22.48;;;16.75;;
62673;SDS011;62269;47.594;17.638;2023-03-01T01:42:28;20.42;;;16.52;;
62673;SDS011;62269;47.594;17.638;2023-03-01T01:43:28;25.45;;;17.52;;
62673;SDS011;62269;47.594;17.638;2023-03-01T01:47:20;22.35;;;15.57;;
62673;SDS011;62269;47.594;17.638;2023-03-01T01:48:10;22.30;;;17.52;;
62673;SDS011;62269;47.594;17.638;2023-03-01T01:49:03;21.75;;;15.98;;
62673;SDS011;62269;47.594;17.638;2023-03-01T01:49:56;23.62;;;16.95;;
62673;SDS011;62269;47.594;17.638;2023-03-01T01:51:33;25.77;;;17.02;;
62673;SDS011;62269;47.594;17.638;2023-03-01T01:52:34;19.77;;;15.38;;
62673;SDS011;62269;47.594;17.638;2023-03-01T01:53:22;23.85;;;16.67;;
62673;SDS011;62269;47.594;17.638;2023-03-01T01:54:18;20.83;;;16.52;;
62673;SDS011;62269;47.594;17.638;2023-03-01T01:55:25;22.70;;;16.67;;
62673;SDS011;62269;47.594;17.638;2023-03-01T01:56:13;23.25;;;16.60;;
62673;SDS011;62269;47.594;17.638;2023-03-01T01:57:03;25.50;;;17.70;;
62673;SDS011;62269;47.594;17.638;2023-03-01T01:57:52;28.55;;;18.12;;
62673;SDS011;62269;47.594;17.638;2023-03-01T01:59:28;21.75;;;15.75;;
62673;SDS011;62269;47.594;17.638;2023-03-01T02:00:19;22.52;;;16.02;;
62673;SDS011;62269;47.594;17.638;2023-03-01T02:01:13;21.87;;;15.65;;
62673;SDS011;62269;47.594;17.638;2023-03-01T02:02:02;23.12;;;16.65;;
62673;SDS011;62269;47.594;17.638;2023-03-01T02:02:51;21.90;;;16.87;;
62673;SDS011;62269;47.594;17.638;2023-03-01T02:04:04;20.83;;;15.93;;
62673;SDS011;62269;47.594;17.638;2023-03-01T02:04:55;23.62;;;17.25;;
62673;SDS011;62269;47.594;17.638;2023-03-01T02:07:01;23.12;;;16.10;;
62673;SDS011;62269;47.594;17.638;2023-03-01T02:07:50;21.08;;;16.87;;
62673;SDS011;62269;47.594;17.638;2023-03-01T02:08:38;21.62;;;17.37;;
62673;SDS011;62269;47.594;17.638;2023-03-01T02:09:27;23.70;;;17.25;;
62673;SDS011;62269;47.594;17.638;2023-03-01T02:10:14;23.85;;;17.75;;
62673;SDS011;62269;47.594;17.638;2023-03-01T02:11:02;23.02;;;17.02;;
62673;SDS011;62269;47.594;17.638;2023-03-01T02:11:50;23.05;;;17.42;;
62673;SDS011;62269;47.594;17.638;2023-03-01T02:12:38;21.50;;;16.02;;
62673;SDS011;62269;47.594;17.638;2023-03-01T02:13:25;22.58;;;17.35;;
62673;SDS011;62269;47.594;17.638;2023-03-01T02:14:12;21.33;;;16.25;;
62673;SDS011;62269;47.594;17.638;2023-03-01T02:15:01;26.17;;;17.37;;
62673;SDS011;62269;47.594;17.638;2023-03-01T02:15:48;21.77;;;17.17;;
62673;SDS011;62269;47.594;17.638;2023-03-01T02:16:35;24.52;;;17.58;;
62673;SDS011;62269;47.594;17.638;2023-03-01T02:17:22;21.60;;;16.95;;
62673;SDS011;62269;47.594;17.638;2023-03-01T02:18:10;22.35;;;17.10;;
62673;SDS011;62269;47.594;17.638;2023-03-01T02:19:00;22.33;;;16.40;;
62673;SDS011;62269;47.594;17.638;2023-03-01T02:22:13;20.85;;;15.70;;
62673;SDS011;62269;47.594;17.638;2023-03-01T02:23:07;21.75;;;15.48;;
62673;SDS011;62269;47.594;17.638;2023-03-01T02:23:54;23.67;;;16.12;;
62673;SDS011;62269;47.594;17.638;2023-03-01T02:26:30;26.77;;;18.87;;
62673;SDS011;62269;47.594;17.638;2023-03-01T02:27:22;22.95;;;16.98;;
62673;SDS011;62269;47.594;17.638;2023-03-01T02:29:02;25.40;;;17.48;;
62673;SDS011;62269;47.594;17.638;2023-03-01T02:29:49;23.33;;;16.90;;
62673;SDS011;62269;47.594;17.638;2023-03-01T02:30:36;22.90;;;17.37;;
62673;SDS011;62269;47.594;17.638;2023-03-01T02:31:23;23.75;;;17.75;;
62673;SDS011;62269;47.594;17.638;2023-03-01T02:32:28;22.40;;;16.60;;
62673;SDS011;62269;47.594;17.638;2023-03-01T02:33:15;23.70;;;16.75;;
62673;SDS011;62269;47.594;17.638;2023-03-01T02:34:03;24.80;;;17.48;;
62673;SDS011;62269;47.594;17.638;2023-03-01T02:34:51;21.40;;;16.23;;
62673;SDS011;62269;47.594;17.638;2023-03-01T02:35:39;22.65;;;16.52;;
62673;SDS011;62269;47.594;17.638;2023-03-01T02:36:44;22.23;;;16.12;;
62673;SDS011;62269;47.594;17.638;2023-03-01T02:37:33;20.37;;;16.23;;
62673;SDS011;62269;47.594;17.638;2023-03-01T02:38:22;22.25;;;16.10;;
62673;SDS011;62269;47.594;17.638;2023-03-01T02:39:11;22.70;;;15.73;;
62673;SDS011;62269;47.594;17.638;2023-03-01T02:40:04;25.35;;;17.48;;
62673;SDS011;62269;47.594;17.638;2023-03-01T02:40:53;23.50;;;17.17;;
62673;SDS011;62269;47.594;17.638;2023-03-01T02:41:42;24.20;;;16.83;;
62673;SDS011;62269;47.594;17.638;2023-03-01T02:42:35;22.52;;;17.12;;
62673;SDS011;62269;47.594;17.638;2023-03-01T02:43:26;21.65;;;15.80;;
62673;SDS011;62269;47.594;17.638;2023-03-01T02:44:15;22.33;;;16.37;;
62673;SDS011;62269;47.594;17.638;2023-03-01T02:45:02;23.17;;;16.30;;
62673;SDS011;62269;47.594;17.638;2023-03-01T02:45:50;22.65;;;16.08;;
62673;SDS011;62269;47.594;17.638;2023-03-01T02:46:52;20.42;;;15.88;;
62673;SDS011;62269;47.594;17.638;2023-03-01T02:47:40;19.67;;;15.45;;
62673;SDS011;62269;47.594;17.638;2023-03-01T02:48:27;21.00;;;16.10;;
62673;SDS011;62269;47.594;17.638;2023-03-01T02:49:24;22.25;;;16.55;;
62673;SDS011;62269;47.594;17.638;2023-03-01T02:51:07;20.02;;;15.10;;
62673;SDS011;62269;47.594;17.638;2023-03-01T02:53:08;21.15;;;14.57;;
62673;SDS011;62269;47.594;17.638;2023-03-01T02:55:15;21.33;;;15.40;;
62673;SDS011;62269;47.594;17.638;2023-03-01T02:56:03;21.12;;;16.00;;
62673;SDS011;62269;47.594;17.638;2023-03-01T02:56:50;19.75;;;15.27;;
62673;SDS011;62269;47.594;17.638;2023-03-01T02:57:39;18.98;;;14.48;;
62673;SDS011;62269;47.594;17.638;2023-03-01T02:58:27;20.45;;;16.08;;
62673;SDS011;62269;47.594;17.638;2023-03-01T02:59:15;19.35;;;15.23;;
62673;SDS011;62269;47.594;17.638;2023-03-01T03:00:05;22.67;;;16.55;;
62673;SDS011;62269;47.594;17.638;2023-03-01T03:00:53;25.27;;;16.15;;
62673;SDS011;62269;47.594;17.638;2023-03-01T03:01:41;21.27;;;16.70;;
62673;SDS011;62269;47.594;17.638;2023-03-01T03:02:29;19.55;;;15.88;;
62673;SDS011;62269;47.594;17.638;2023-03-01T03:03:22;22.58;;;16.37;;
62673;SDS011;62269;47.594;17.638;2023-03-01T03:04:10;21.15;;;16.80;;
62673;SDS011;62269;47.594;17.638;2023-03-01T03:05:08;21.73;;;16.70;;
62673;SDS011;62269;47.594;17.638;2023-03-01T03:05:57;21.25;;;17.08;;
62673;SDS011;62269;47.594;17.638;2023-03-01T03:06:45;20.33;;;15.75;;
62673;SDS011;62269;47.594;17.638;2023-03-01T03:07:33;21.80;;;16.27;;
62673;SDS011;62269;47.594;17.638;2023-03-01T03:08:21;27.17;;;17.33;;
62673;SDS011;62269;47.594;17.638;2023-03-01T03:09:11;20.75;;;16.30;;
62673;SDS011;62269;47.594;17.638;2023-03-01T03:10:01;23.42;;;16.35;;
62673;SDS011;62269;47.594;17.638;2023-03-01T03:10:49;20.98;;;16.58;;
62673;SDS011;62269;47.594;17.638;2023-03-01T03:11:36;21.73;;;17.27;;
62673;SDS011;62269;47.594;17.638;2023-03-01T03:12:25;21.45;;;16.62;;
62673;SDS011;62269;47.594;17.638;2023-03-01T03:13:13;21.80;;;16.45;;
62673;SDS011;62269;47.594;17.638;2023-03-01T03:14:01;23.48;;;16.23;;
62673;SDS011;62269;47.594;17.638;2023-03-01T03:14:48;22.85;;;16.80;;
62673;SDS011;62269;47.594;17.638;2023-03-01T03:15:35;23.40;;;16.98;;
62673;SDS011;62269;47.594;17.638;2023-03-01T03:16:22;23.98;;;16.95;;
62673;SDS011;62269;47.594;17.638;2023-03-01T03:17:09;22.77;;;16.67;;
62673;SDS011;62269;47.594;17.638;2023-03-01T03:17:57;22.85;;;17.15;;
62673;SDS011;62269;47.594;17.638;2023-03-01T03:18:44;23.98;;;17.75;;
62673;SDS011;62269;47.594;17.638;2023-03-01T03:19:31;26.05;;;17.98;;
62673;SDS011;62269;47.594;17.638;2023-03-01T03:20:20;23.35;;;17.65;;
62673;SDS011;62269;47.594;17.638;2023-03-01T03:21:17;21.05;;;16.58;;
62673;SDS011;62269;47.594;17.638;2023-03-01T03:22:04;22.92;;;17.70;;
62673;SDS011;62269;47.594;17.638;2023-03-01T03:22:52;23.27;;;16.02;;
62673;SDS011;62269;47.594;17.638;2023-03-01T03:23:40;24.15;;;18.08;;
62673;SDS011;62269;47.594;17.638;2023-03-01T03:24:27;22.62;;;16.83;;
62673;SDS011;62269;47.594;17.638;2023-03-01T03:25:24;23.08;;;17.30;;
62673;SDS011;62269;47.594;17.638;2023-03-01T03:26:12;23.05;;;17.58;;
62673;SDS011;62269;47.594;17.638;2023-03-01T03:26:59;22.23;;;16.17;;
62673;SDS011;62269;47.594;17.638;2023-03-01T03:27:47;24.90;;;19.40;;
62673;SDS011;62269;47.594;17.638;2023-03-01T03:28:35;25.88;;;17.50;;
62673;SDS011;62269;47.594;17.638;2023-03-01T03:29:26;24.42;;;18.20;;
62673;SDS011;62269;47.594;17.638;2023-03-01T03:30:16;28.10;;;20.15;;
62673;SDS011;62269;47.594;17.638;2023-03-01T03:31:06;30.10;;;20.45;;
62673;SDS011;62269;47.594;17.638;2023-03-01T03:31:56;30.00;;;21.23;;
62673;SDS011;62269;47.594;17.638;2023-03-01T03:32:44;26.58;;;20.25;;
62673;SDS011;62269;47.594;17.638;2023-03-01T03:33:38;31.50;;;21.10;;
62673;SDS011;62269;47.594;17.638;2023-03-01T03:34:25;27.50;;;21.42;;
62673;SDS011;62269;47.594;17.638;2023-03-01T03:35:12;30.33;;;22.15;;
62673;SDS011;62269;47.594;17.638;2023-03-01T03:35:59;31.25;;;23.12;;
62673;SDS011;62269;47.594;17.638;2023-03-01T03:36:46;29.87;;;22.33;;
62673;SDS011;62269;47.594;17.638;2023-03-01T03:37:33;28.90;;;21.77;;
62673;SDS011;62269;47.594;17.638;2023-03-01T03:38:38;28.83;;;20.98;;
62673;SDS011;62269;47.594;17.638;2023-03-01T03:39:26;28.23;;;20.58;;
62673;SDS011;62269;47.594;17.638;2023-03-01T03:40:13;31.62;;;22.70;;
62673;SDS011;62269;47.594;17.638;2023-03-01T03:41:02;28.80;;;21.52;;
62673;SDS011;62269;47.594;17.638;2023-03-01T03:41:52;31.20;;;22.05;;
62673;SDS011;62269;47.594;17.638;2023-03-01T03:42:39;33.55;;;24.60;;
62673;SDS011;62269;47.594;17.638;2023-03-01T03:43:26;37.78;;;24.52;;
62673;SDS011;62269;47.594;17.638;2023-03-01T03:44:13;31.98;;;24.67;;
62673;SDS011;62269;47.594;17.638;2023-03-01T03:45:00;34.47;;;24.73;;
62673;SDS011;62269;47.594;17.638;2023-03-01T03:45:47;31.27;;;24.63;;
62673;SDS011;62269;47.594;17.638;2023-03-01T03:46:35;32.25;;;23.90;;
62673;SDS011;62269;47.594;17.638;2023-03-01T03:47:22;29.85;;;22.33;;
62673;SDS011;62269;47.594;17.638;2023-03-01T03:48:09;29.87;;;21.73;;
62673;SDS011;62269;47.594;17.638;2023-03-01T03:48:56;30.10;;;22.62;;
62673;SDS011;62269;47.594;17.638;2023-03-01T03:49:43;31.40;;;24.12;;
62673;SDS011;62269;47.594;17.638;2023-03-01T03:50:30;31.83;;;23.38;;
62673;SDS011;62269;47.594;17.638;2023-03-01T03:51:17;37.60;;;25.92;;
62673;SDS011;62269;47.594;17.638;2023-03-01T03:52:05;34.95;;;24.90;;
62673;SDS011;62269;47.594;17.638;2023-03-01T03:53:00;36.17;;;24.85;;
62673;SDS011;62269;47.594;17.638;2023-03-01T03:53:48;34.00;;;24.10;;
62673;SDS011;62269;47.594;17.638;2023-03-01T03:54:34;34.63;;;24.05;;
62673;SDS011;62269;47.594;17.638;2023-03-01T03:55:22;35.10;;;23.80;;
62673;SDS011;62269;47.594;17.638;2023-03-01T03:56:09;34.30;;;24.85;;
62673;SDS011;62269;47.594;17.638;2023-03-01T03:56:56;35.33;;;25.05;;
62673;SDS011;62269;47.594;17.638;2023-03-01T03:57:43;32.90;;;24.83;;
62673;SDS011;62269;47.594;17.638;2023-03-01T03:58:30;32.45;;;24.52;;
62673;SDS011;62269;47.594;17.638;2023-03-01T03:59:17;33.00;;;24.15;;
62673;SDS011;62269;47.594;17.638;2023-03-01T04:00:04;34.00;;;25.25;;
62673;SDS011;62269;47.594;17.638;2023-03-01T04:00:59;37.17;;;25.10;;
62673;SDS011;62269;47.594;17.638;2023-03-01T04:01:47;37.80;;;25.60;;
62673;SDS011;62269;47.594;17.638;2023-03-01T04:02:34;35.85;;;25.70;;
62673;SDS011;62269;47.594;17.638;2023-03-01T04:03:21;37.17;;;25.48;;
62673;SDS011;62269;47.594;17.638;2023-03-01T04:04:09;36.33;;;26.12;;
62673;SDS011;62269;47.594;17.638;2023-03-01T04:04:59;32.03;;;24.58;;
62673;SDS011;62269;47.594;17.638;2023-03-01T04:05:46;33.85;;;25.20;;
62673;SDS011;62269;47.594;17.638;2023-03-01T04:06:33;35.10;;;25.10;;
62673;SDS011;62269;47.594;17.638;2023-03-01T04:07:20;35.15;;;25.88;;
62673;SDS011;62269;47.594;17.638;2023-03-01T04:08:07;37.60;;;25.80;;
62673;SDS011;62269;47.594;17.638;2023-03-01T04:08:55;36.50;;;26.95;;
62673;SDS011;62269;47.594;17.638;2023-03-01T04:09:46;31.45;;;24.65;;
62673;SDS011;62269;47.594;17.638;2023-03-01T04:10:34;32.85;;;24.65;;
62673;SDS011;62269;47.594;17.638;2023-03-01T04:11:22;35.17;;;25.52;;
62673;SDS011;62269;47.594;17.638;2023-03-01T04:12:12;33.20;;;23.77;;
62673;SDS011;62269;47.594;17.638;2023-03-01T04:12:59;34.50;;;24.27;;
62673;SDS011;62269;47.594;17.638;2023-03-01T04:13:46;33.67;;;24.80;;
62673;SDS011;62269;47.594;17.638;2023-03-01T04:14:33;31.65;;;23.75;;
62673;SDS011;62269;47.594;17.638;2023-03-01T04:15:20;32.08;;;24.15;;
62673;SDS011;62269;47.594;17.638;2023-03-01T04:16:09;33.28;;;23.60;;
62673;SDS011;62269;47.594;17.638;2023-03-01T04:16:56;36.10;;;25.10;;
62673;SDS011;62269;47.594;17.638;2023-03-01T04:17:44;34.90;;;23.62;;
62673;SDS011;62269;47.594;17.638;2023-03-01T04:18:32;35.03;;;25.12;;
62673;SDS011;62269;47.594;17.638;2023-03-01T04:19:19;32.28;;;24.67;;
62673;SDS011;62269;47.594;17.638;2023-03-01T04:20:06;30.20;;;22.90;;
62673;SDS011;62269;47.594;17.638;2023-03-01T04:20:57;29.73;;;23.20;;
62673;SDS011;62269;47.594;17.638;2023-03-01T04:21:44;33.35;;;23.75;;
62673;SDS011;62269;47.594;17.638;2023-03-01T04:22:31;32.20;;;24.33;;
62673;SDS011;62269;47.594;17.638;2023-03-01T04:23:20;31.55;;;23.83;;
62673;SDS011;62269;47.594;17.638;2023-03-01T04:24:07;31.90;;;24.00;;
62673;SDS011;62269;47.594;17.638;2023-03-01T04:24:56;34.05;;;24.02;;
62673;SDS011;62269;47.594;17.638;2023-03-01T04:25:45;38.15;;;25.75;;
62673;SDS011;62269;47.594;17.638;2023-03-01T04:26:41;36.25;;;25.50;;
62673;SDS011;62269;47.594;17.638;2023-03-01T04:27:27;35.17;;;24.33;;
62673;SDS011;62269;47.594;17.638;2023-03-01T04:28:15;35.63;;;24.80;;
62673;SDS011;62269;47.594;17.638;2023-03-01T04:29:02;34.25;;;25.35;;
62673;SDS011;62269;47.594;17.638;2023-03-01T04:29:49;33.70;;;24.90;;
62673;SDS011;62269;47.594;17.638;2023-03-01T04:30:37;31.62;;;23.42;;
62673;SDS011;62269;47.594;17.638;2023-03-01T04:31:24;34.28;;;25.02;;
62673;SDS011;62269;47.594;17.638;2023-03-01T04:32:11;36.13;;;25.98;;
62673;SDS011;62269;47.594;17.638;2023-03-01T04:33:00;31.92;;;24.80;;
62673;SDS011;62269;47.594;17.638;2023-03-01T04:33:48;36.42;;;25.05;;
62673;SDS011;62269;47.594;17.638;2023-03-01T04:34:39;32.15;;;23.33;;
62673;SDS011;62269;47.594;17.638;2023-03-01T04:35:26;37.97;;;23.62;;
62673;SDS011;62269;47.594;17.638;2023-03-01T04:36:15;30.77;;;24.30;;
62673;SDS011;62269;47.594;17.638;2023-03-01T04:37:03;36.10;;;24.07;;
62673;SDS011;62269;47.594;17.638;2023-03-01T04:37:52;32.17;;;23.80;;
62673;SDS011;62269;47.594;17.638;2023-03-01T04:38:39;35.63;;;25.45;;
62673;SDS011;62269;47.594;17.638;2023-03-01T04:39:27;31.98;;;25.00;;
62673;SDS011;62269;47.594;17.638;2023-03-01T04:40:14;34.53;;;25.80;;
62673;SDS011;62269;47.594;17.638;2023-03-01T04:41:06;34.75;;;26.45;;
62673;SDS011;62269;47.594;17.638;2023-03-01T04:41:54;40.47;;;27.42;;
62673;SDS011;62269;47.594;17.638;2023-03-01T04:42:42;39.10;;;28.40;;
62673;SDS011;62269;47.594;17.638;2023-03-01T04:43:29;38.58;;;28.58;;
62673;SDS011;62269;47.594;17.638;2023-03-01T04:44:16;34.60;;;27.48;;
62673;SDS011;62269;47.594;17.638;2023-03-01T04:45:03;35.40;;;28.33;;
62673;SDS011;62269;47.594;17.638;2023-03-01T04:46:03;37.25;;;26.37;;
62673;SDS011;62269;47.594;17.638;2023-03-01T04:46:52;34.75;;;24.83;;
62673;SDS011;62269;47.594;17.638;2023-03-01T04:47:42;35.45;;;25.88;;
62673;SDS011;62269;47.594;17.638;2023-03-01T04:48:32;35.03;;;26.45;;
62673;SDS011;62269;47.594;17.638;2023-03-01T04:49:19;34.10;;;25.55;;
62673;SDS011;62269;47.594;17.638;2023-03-01T04:50:06;36.42;;;26.35;;
62673;SDS011;62269;47.594;17.638;2023-03-01T04:50:54;39.33;;;27.85;;
62673;SDS011;62269;47.594;17.638;2023-03-01T04:51:41;37.38;;;27.67;;
62673;SDS011;62269;47.594;17.638;2023-03-01T04:52:28;39.30;;;28.80;;
62673;SDS011;62269;47.594;17.638;2023-03-01T04:53:15;38.97;;;26.85;;
62673;SDS011;62269;47.594;17.638;2023-03-01T04:54:02;40.60;;;29.35;;
62673;SDS011;62269;47.594;17.638;2023-03-01T04:54:49;38.58;;;27.85;;